Terminal Aerodrome Forecast
Issued by NWS Spokane, WA

Home | Current Version | Previous Version | Text Only | Print | Product List | Glossary On
Versions: 1 2 3 4 5 6 7 8 9 10 11 12 13 14 15 16 17 18 19 20 21 22 23 24 25 26 27 28 29 30 31 32 33 34 35 36 37 38 39 40 41 42 43 44 45 46 47 48
000
FTUS46 KOTX 281151 CCA
TAFGEG
TAF COR
KGEG 281151Z 2812/2912 23007KT P6SM VCSH SCT015 SCT025 OVC050
     FM281500 25005KT 6SM BR SCT004 BKN020 OVC040
     FM281800 32004KT P6SM OVC015
     FM290300 06007KT 3SM -SN SCT010 OVC020
     FM290700 04012G18KT P6SM VCSH OVC025=

USA.gov is the U.S. government's official web portal to all federal, state and local government web resources and services.